createdAt,value
2018-01-17T08:01:09.385Z,85.20
2018-01-17T08:03:36.842Z,85.30
2018-01-17T08:06:04.354Z,86.10
2018-01-17T08:08:31.829Z,88.20
2018-01-17T08:10:59.331Z,88.20
2018-01-17T08:13:26.820Z,87.20
2018-01-17T08:15:55.066Z,88.30
2018-01-17T08:18:22.579Z,88.30
2018-01-17T08:20:50.042Z,78.20
2018-01-17T08:23:17.547Z,81.70
2018-01-17T08:25:44.991Z,79.80
2018-01-17T08:28:12.476Z,79.60
2018-01-17T08:30:39.969Z,81.20
2018-01-17T08:33:07.442Z,83.90
2018-01-17T08:35:34.918Z,83.40
2018-01-17T08:38:02.378Z,80.30
2018-01-17T08:40:29.877Z,83.50
2018-01-17T08:42:58.116Z,88.00
2018-01-17T08:45:25.566Z,88.00
2018-01-17T08:47:53.042Z,81.40
2018-01-17T08:50:20.502Z,82.40
2018-01-17T08:52:48.009Z,82.40
2018-01-17T08:55:15.500Z,84.80
2018-01-17T08:57:42.947Z,86.10
2018-01-17T09:00:10.424Z,85.90
2018-01-17T09:02:37.891Z,83.30
2018-01-17T09:05:05.431Z,82.70
2018-01-17T09:07:32.870Z,83.40
2018-01-17T09:10:00.322Z,84.20
2018-01-17T09:12:27.801Z,84.40
2018-01-17T09:14:55.286Z,81.00
2018-01-17T09:17:22.773Z,77.60
2018-01-17T09:19:50.228Z,78.20
2018-01-17T09:22:18.494Z,78.90
2018-01-17T09:24:46.728Z,75.90
2018-01-17T09:27:14.190Z,76.00
2018-01-17T09:29:41.669Z,77.20
2018-01-17T09:32:09.130Z,77.50
2018-01-17T09:34:36.609Z,77.20
2018-01-17T09:37:04.886Z,77.70
2018-01-17T09:39:33.119Z,78.30
2018-01-17T09:42:00.594Z,78.30
2018-01-17T09:44:28.846Z,78.70
2018-01-17T09:46:56.327Z,78.70
2018-01-17T09:49:23.831Z,78.00
2018-01-17T09:51:51.321Z,79.50
2018-01-17T09:54:18.859Z,79.20
2018-01-17T09:56:46.326Z,76.60
2018-01-17T09:59:13.801Z,75.00
2018-01-17T10:01:41.250Z,78.20
2018-01-17T10:04:08.725Z,78.90
2018-01-17T10:06:36.213Z,79.90
2018-01-17T10:09:04.510Z,76.90
2018-01-17T10:11:31.991Z,76.90
2018-01-17T10:13:59.459Z,74.70
2018-01-17T10:16:26.929Z,78.60
2018-01-17T10:18:54.389Z,81.00
2018-01-17T10:21:21.873Z,82.30
2018-01-17T10:23:49.354Z,84.20
2018-01-17T10:26:17.590Z,87.90
2018-01-17T10:28:45.065Z,87.90
2018-01-17T10:31:12.522Z,88.10
2018-01-17T10:33:40.052Z,90.60
2018-01-17T10:36:07.509Z,90.60
2018-01-17T10:38:34.968Z,90.50
2018-01-17T10:41:02.473Z,90.20
2018-01-17T10:43:30.701Z,89.90
2018-01-17T10:45:58.208Z,89.90
2018-01-17T10:48:26.434Z,85.90
2018-01-17T10:50:53.882Z,85.90
2018-01-17T10:53:21.376Z,82.20
2018-01-17T10:55:49.632Z,85.20
2018-01-17T10:58:17.107Z,85.10
2018-01-17T11:00:46.401Z,84.50
2018-01-17T11:03:13.869Z,84.40
2018-01-17T11:05:41.364Z,82.80
2018-01-17T11:08:09.585Z,82.30
2018-01-17T11:10:37.090Z,82.30
2018-01-17T11:13:05.323Z,83.00
2018-01-17T11:15:32.803Z,83.10
2018-01-17T11:18:01.041Z,84.30
2018-01-17T11:20:28.522Z,84.30
2018-01-17T11:22:56.026Z,85.40
2018-01-17T11:25:24.284Z,85.90
2018-01-17T11:27:52.529Z,87.00
2018-01-17T11:30:19.973Z,87.00
2018-01-17T11:32:47.472Z,88.50
2018-01-17T11:35:14.973Z,87.20
2018-01-17T11:37:42.434Z,88.00
2018-01-17T11:40:09.930Z,86.90
2018-01-17T11:42:37.397Z,86.00
2018-01-17T11:45:04.889Z,82.50
2018-01-17T11:47:32.369Z,80.30
2018-01-17T11:49:59.981Z,80.20
2018-01-17T11:52:27.433Z,80.00
2018-01-17T11:54:54.974Z,77.50
2018-01-17T11:57:22.473Z,73.20
2018-01-17T11:59:50.751Z,77.10
2018-01-17T12:02:19.013Z,80.30
2018-01-17T12:04:46.493Z,80.40
2018-01-17T12:07:13.970Z,72.60
2018-01-17T12:09:41.471Z,74.90
2018-01-17T12:12:08.938Z,77.90
2018-01-17T12:14:36.425Z,78.80
2018-01-17T12:17:04.686Z,78.90
2018-01-17T12:19:32.159Z,79.00
2018-01-17T12:22:00.444Z,81.20
2018-01-17T12:24:28.665Z,81.00
2018-01-17T12:26:56.153Z,81.00
2018-01-17T12:29:23.622Z,82.00
2018-01-17T12:31:51.845Z,84.60
2018-01-17T12:34:19.344Z,84.60
2018-01-17T12:36:46.830Z,84.10
2018-01-17T12:39:15.049Z,82.70
2018-01-17T12:41:42.550Z,82.70
2018-01-17T12:44:10.786Z,79.30
2018-01-17T12:46:38.288Z,79.30
2018-01-17T12:49:06.530Z,76.00
2018-01-17T12:51:34.001Z,76.00
2018-01-17T12:54:01.521Z,72.70
2018-01-17T12:56:28.982Z,72.80
2018-01-17T12:58:56.465Z,71.50
2018-01-17T13:01:23.961Z,71.30
2018-01-17T13:03:52.173Z,69.50
2018-01-17T13:06:19.693Z,69.50
2018-01-17T13:08:47.958Z,74.00
2018-01-17T13:11:15.422Z,74.10
2018-01-17T13:13:43.669Z,75.00
2018-01-17T13:16:11.134Z,75.00
2018-01-17T13:18:38.640Z,73.70
2018-01-17T13:21:06.088Z,73.60
2018-01-17T13:23:33.574Z,70.90
2018-01-17T13:26:01.132Z,70.40
2018-01-17T13:28:28.600Z,70.80
2018-01-17T13:30:56.086Z,71.10
2018-01-17T13:33:25.066Z,70.10
2018-01-17T13:35:52.541Z,70.10
2018-01-17T13:38:19.998Z,71.20
2018-01-17T13:40:48.222Z,71.80
2018-01-17T13:43:15.729Z,71.80
2018-01-17T13:45:44.693Z,76.10
2018-01-17T13:48:12.173Z,76.20
2018-01-17T13:50:39.660Z,76.60
2018-01-17T13:53:07.877Z,75.10
2018-01-17T13:55:35.377Z,75.10
2018-01-17T13:58:02.865Z,73.40
2018-01-17T14:00:31.105Z,72.20
2018-01-17T14:02:58.600Z,72.20
2018-01-17T14:05:26.810Z,76.50
2018-01-17T14:07:54.305Z,76.50
2018-01-17T14:10:21.782Z,75.80
2018-01-17T14:12:50.039Z,79.80
2018-01-17T14:15:17.486Z,79.90
2018-01-17T14:17:45.014Z,79.70
2018-01-17T14:20:12.466Z,79.50
2018-01-17T14:22:39.910Z,80.90
2018-01-17T14:25:07.406Z,79.90
2018-01-17T14:27:34.890Z,77.80
2018-01-17T14:30:02.418Z,79.90
2018-01-17T14:32:29.874Z,80.60
2018-01-17T14:34:57.351Z,82.00
2018-01-17T14:37:24.882Z,80.60
2018-01-17T14:39:52.329Z,80.70
2018-01-17T14:42:19.829Z,82.50
2018-01-17T14:44:47.292Z,82.30
2018-01-17T14:47:14.801Z,83.40
2018-01-17T14:49:42.317Z,85.10
2018-01-17T14:52:09.786Z,84.60
2018-01-17T14:54:37.249Z,84.30
2018-01-17T14:57:05.505Z,85.20
2018-01-17T14:59:32.991Z,85.20
2018-01-17T15:02:01.240Z,86.50
2018-01-17T15:04:28.704Z,86.50
2018-01-17T15:06:56.195Z,86.70
2018-01-17T15:09:23.682Z,86.90
2018-01-17T15:11:51.188Z,86.00
2018-01-17T15:14:19.420Z,90.30
2018-01-17T15:16:46.910Z,90.40
2018-01-17T15:19:14.399Z,90.70
2018-01-17T15:21:42.650Z,85.40
2018-01-17T15:24:10.105Z,85.50
2018-01-17T15:26:37.623Z,87.30
2018-01-17T15:29:05.079Z,86.10
2018-01-17T15:31:32.573Z,86.70
2018-01-17T15:34:00.051Z,85.60
2018-01-17T15:36:27.511Z,86.20
2018-01-17T15:38:55.753Z,86.50
2018-01-17T15:41:23.223Z,86.50
2018-01-17T15:43:50.721Z,87.60
2018-01-17T15:46:18.948Z,88.90
2018-01-17T15:48:46.449Z,88.90
2018-01-17T15:51:14.708Z,88.90
2018-01-17T15:53:42.185Z,88.90
2018-01-17T15:56:10.430Z,89.30
2018-01-17T15:58:37.914Z,89.30
2018-01-17T16:01:06.125Z,89.40
2018-01-17T16:03:33.651Z,89.40
2018-01-17T16:06:01.880Z,89.50
2018-01-17T16:08:29.369Z,89.50
2018-01-17T16:10:56.826Z,88.00
2018-01-17T16:13:24.310Z,88.10
2018-01-17T16:15:52.573Z,90.00
2018-01-17T16:18:20.033Z,90.00
2018-01-17T16:20:48.290Z,90.20
2018-01-17T16:23:15.757Z,90.30
2018-01-17T16:25:43.262Z,90.50
2018-01-17T16:28:10.734Z,91.00
2018-01-17T16:30:38.191Z,91.10
2018-01-17T16:33:05.680Z,91.40
2018-01-17T16:35:33.178Z,92.30
2018-01-17T16:38:01.441Z,92.40
2018-01-17T16:40:29.680Z,92.40
2018-01-17T16:42:57.146Z,92.40
2018-01-17T16:45:24.637Z,92.30
2018-01-17T16:47:52.902Z,92.30
2018-01-17T16:50:20.400Z,92.30
2018-01-17T16:52:47.870Z,92.40
2018-01-17T16:55:15.389Z,92.30
2018-01-17T16:57:43.628Z,91.80
2018-01-17T17:00:11.130Z,91.80
2018-01-17T17:02:38.734Z,91.40
2018-01-17T17:05:06.250Z,90.50
2018-01-17T17:07:34.466Z,91.10
2018-01-17T17:10:01.951Z,91.10
2018-01-17T17:12:29.461Z,91.40
2018-01-17T17:14:56.938Z,91.70
2018-01-17T17:17:24.397Z,92.00
2018-01-17T17:19:51.892Z,92.20
2018-01-17T17:22:19.344Z,92.10
2018-01-17T17:24:48.360Z,91.80
2018-01-17T17:27:16.608Z,91.70
2018-01-17T17:29:44.062Z,91.70
2018-01-17T17:32:11.568Z,91.60
2018-01-17T17:34:39.806Z,91.60
2018-01-17T17:37:07.265Z,91.60
2018-01-17T17:39:34.760Z,91.60
2018-01-17T17:42:02.987Z,91.60
2018-01-17T17:44:30.494Z,91.60
2018-01-17T17:46:58.741Z,91.60
2018-01-17T17:49:26.222Z,91.60
2018-01-17T17:51:54.469Z,91.60
2018-01-17T17:54:21.936Z,91.60
2018-01-17T17:56:49.461Z,91.70
2018-01-17T17:59:16.904Z,91.70
2018-01-17T18:01:44.378Z,91.80
2018-01-17T18:04:11.883Z,91.90
2018-01-17T18:06:40.139Z,92.00
2018-01-17T18:09:07.629Z,92.00
2018-01-17T18:11:35.098Z,92.00
2018-01-17T18:14:02.572Z,92.10
2018-01-17T18:16:30.067Z,92.20
2018-01-17T18:18:57.542Z,92.30
2018-01-17T18:21:25.051Z,92.40
2018-01-17T18:23:52.503Z,92.40
2018-01-17T18:26:20.012Z,92.40
2018-01-17T18:28:47.670Z,92.40
2018-01-17T18:31:15.259Z,92.40
2018-01-17T18:33:43.535Z,92.50
2018-01-17T18:36:11.767Z,92.10
2018-01-17T18:38:39.229Z,92.10
2018-01-17T18:41:06.705Z,91.60
2018-01-17T18:43:34.178Z,91.10
2018-01-17T18:46:02.438Z,90.90
2018-01-17T18:48:30.687Z,90.80
2018-01-17T18:50:58.130Z,90.80
2018-01-17T18:53:25.634Z,90.00
2018-01-17T18:55:53.094Z,90.40
2018-01-17T18:58:20.606Z,90.10
2018-01-17T19:00:48.099Z,89.10
2018-01-17T19:03:15.599Z,90.20
2018-01-17T19:05:43.839Z,90.00
2018-01-17T19:08:11.345Z,90.00
2018-01-17T19:10:38.807Z,90.00
2018-01-17T19:13:06.256Z,90.10
2018-01-17T19:15:33.757Z,90.20
2018-01-17T19:18:01.209Z,90.40
2018-01-17T19:20:28.675Z,90.30
2018-01-17T19:22:56.157Z,88.70
2018-01-17T19:25:24.429Z,89.30
2018-01-17T19:27:51.918Z,89.30
2018-01-17T19:30:20.141Z,89.40
2018-01-17T19:32:47.651Z,89.40
2018-01-17T19:35:15.146Z,88.00
2018-01-17T19:37:42.619Z,87.30
2018-01-17T19:40:10.079Z,87.00
2018-01-17T19:42:37.579Z,87.40
2018-01-17T19:45:05.834Z,88.10
2018-01-17T19:47:33.331Z,88.00
2018-01-17T19:50:00.841Z,88.40
2018-01-17T19:52:28.295Z,86.80
2018-01-17T19:54:55.759Z,88.50
2018-01-17T19:57:23.234Z,88.00
2018-01-17T19:59:51.517Z,87.70
2018-01-17T20:02:18.989Z,87.70
2018-01-17T20:04:47.209Z,88.30
2018-01-17T20:07:14.702Z,88.30
2018-01-17T20:09:42.925Z,88.70
2018-01-17T20:12:10.433Z,88.70
2018-01-17T20:14:38.697Z,87.70
2018-01-17T20:17:07.667Z,88.70
2018-01-17T20:19:35.186Z,88.70
2018-01-17T20:22:03.430Z,89.20
2018-01-17T20:24:30.897Z,89.20
2018-01-17T20:26:58.378Z,89.00
2018-01-17T20:29:25.852Z,88.80
2018-01-17T20:31:53.365Z,88.80
2018-01-17T20:34:20.829Z,89.00
2018-01-17T20:36:48.308Z,89.60
2018-01-17T20:39:22.165Z,89.40
2018-01-17T20:41:49.661Z,89.40
2018-01-17T20:44:17.157Z,90.10
2018-01-17T20:46:44.622Z,90.00
2018-01-17T20:49:12.113Z,89.10
2018-01-17T20:51:40.346Z,89.40
2018-01-17T20:54:07.861Z,89.40
2018-01-17T20:56:35.323Z,89.60
2018-01-17T20:59:03.561Z,90.00
2018-01-17T21:01:31.074Z,90.00
2018-01-17T21:03:59.295Z,89.70
2018-01-17T21:06:26.801Z,89.70
2018-01-17T21:08:55.066Z,90.00
2018-01-17T21:11:22.525Z,90.00
2018-01-17T21:13:50.043Z,90.20
2018-01-17T21:16:17.517Z,90.20
2018-01-17T21:18:44.990Z,90.00
2018-01-17T21:21:12.479Z,90.10
2018-01-17T21:23:40.727Z,89.40
2018-01-17T21:26:08.258Z,89.40
2018-01-17T21:28:35.721Z,88.60
2018-01-17T21:31:03.250Z,90.00
2018-01-17T21:33:30.702Z,90.10
2018-01-17T21:35:58.161Z,90.50
2018-01-17T21:38:25.655Z,91.10
2018-01-17T21:40:53.150Z,91.60
2018-01-17T21:43:27.122Z,92.40
2018-01-17T21:45:54.578Z,92.40
2018-01-17T21:48:22.045Z,92.50
2018-01-17T21:50:49.530Z,92.30
2018-01-17T21:53:17.048Z,92.00
2018-01-17T21:55:44.526Z,91.70
2018-01-17T21:58:11.981Z,91.30
2018-01-17T22:00:39.466Z,91.20
2018-01-17T22:03:06.922Z,90.80
2018-01-17T22:05:34.420Z,90.10
2018-01-17T22:08:01.875Z,88.00
2018-01-17T22:10:29.361Z,87.60
2018-01-17T22:12:56.858Z,88.80
2018-01-17T22:15:24.341Z,88.50
2018-01-17T22:17:51.829Z,88.80
2018-01-17T22:20:19.327Z,88.90
2018-01-17T22:22:46.835Z,89.60
2018-01-17T22:25:14.309Z,90.10
2018-01-17T22:27:41.827Z,90.20
2018-01-17T22:30:10.085Z,90.30
2018-01-17T22:32:37.547Z,90.30
2018-01-17T22:35:05.043Z,90.50
2018-01-17T22:37:32.514Z,90.40
2018-01-17T22:40:00.008Z,90.50
2018-01-17T22:42:27.494Z,90.80
2018-01-17T22:44:55.729Z,91.20
2018-01-17T22:47:23.261Z,91.20
2018-01-17T22:49:50.729Z,91.20
2018-01-17T22:52:18.178Z,91.20
2018-01-17T22:54:45.681Z,91.50
2018-01-17T22:57:13.137Z,91.50
2018-01-17T22:59:40.630Z,92.00
2018-01-17T23:02:08.085Z,92.20
2018-01-17T23:04:35.560Z,92.50
2018-01-17T23:07:03.041Z,92.50
2018-01-17T23:09:30.538Z,92.60
2018-01-17T23:11:58.806Z,92.60
2018-01-17T23:14:26.266Z,92.60
2018-01-17T23:16:53.720Z,92.60
2018-01-17T23:19:21.194Z,92.60
2018-01-17T23:21:49.418Z,92.60
2018-01-17T23:24:16.945Z,92.60
2018-01-17T23:26:44.413Z,92.70
2018-01-17T23:29:12.653Z,92.70
2018-01-17T23:31:40.155Z,92.70
2018-01-17T23:34:07.626Z,92.70
2018-01-17T23:36:35.131Z,92.70
2018-01-17T23:39:02.577Z,92.70
2018-01-17T23:41:30.070Z,92.70
2018-01-17T23:43:58.319Z,92.70
2018-01-17T23:46:25.774Z,92.70
2018-01-17T23:48:53.270Z,92.60
2018-01-17T23:51:21.500Z,92.60
2018-01-17T23:53:49.020Z,92.60
2018-01-17T23:56:16.462Z,92.60
2018-01-17T23:58:44.701Z,92.60
